sensor_id;sensor_type;location;lat;lon;timestamp;temperature;humidity
64501;DHT22;50874;24.150;-110.320;2022-12-20T00:00:56;20.80;99.90
64501;DHT22;50874;24.150;-110.320;2022-12-20T00:03:23;20.80;99.90
64501;DHT22;50874;24.150;-110.320;2022-12-20T00:05:49;20.80;99.90
64501;DHT22;50874;24.150;-110.320;2022-12-20T00:08:16;20.70;99.90
64501;DHT22;50874;24.150;-110.320;2022-12-20T00:10:44;20.60;99.90
64501;DHT22;50874;24.150;-110.320;2022-12-20T00:13:11;20.60;99.90
64501;DHT22;50874;24.150;-110.320;2022-12-20T00:15:38;20.60;99.90
64501;DHT22;50874;24.150;-110.320;2022-12-20T00:18:04;20.40;99.90
64501;DHT22;50874;24.150;-110.320;2022-12-20T00:20:31;20.40;99.90
64501;DHT22;50874;24.150;-110.320;2022-12-20T00:22:57;20.30;99.90
64501;DHT22;50874;24.150;-110.320;2022-12-20T00:25:24;20.20;99.90
64501;DHT22;50874;24.150;-110.320;2022-12-20T00:27:50;20.20;99.90
64501;DHT22;50874;24.150;-110.320;2022-12-20T00:30:17;20.10;99.90
64501;DHT22;50874;24.150;-110.320;2022-12-20T00:32:45;20.00;99.90
64501;DHT22;50874;24.150;-110.320;2022-12-20T00:35:11;19.90;99.90
64501;DHT22;50874;24.150;-110.320;2022-12-20T00:37:38;19.90;99.90
64501;DHT22;50874;24.150;-110.320;2022-12-20T00:40:05;19.80;99.90
64501;DHT22;50874;24.150;-110.320;2022-12-20T00:42:32;19.80;99.90
64501;DHT22;50874;24.150;-110.320;2022-12-20T00:44:58;19.70;99.90
64501;DHT22;50874;24.150;-110.320;2022-12-20T00:47:25;19.70;99.90
64501;DHT22;50874;24.150;-110.320;2022-12-20T00:49:51;19.80;99.90
64501;DHT22;50874;24.150;-110.320;2022-12-20T00:52:18;19.70;99.90
64501;DHT22;50874;24.150;-110.320;2022-12-20T00:54:44;19.70;99.90
64501;DHT22;50874;24.150;-110.320;2022-12-20T00:57:11;19.60;99.90
64501;DHT22;50874;24.150;-110.320;2022-12-20T00:59:37;19.60;99.90
64501;DHT22;50874;24.150;-110.320;2022-12-20T01:02:03;19.60;99.90
64501;DHT22;50874;24.150;-110.320;2022-12-20T01:04:30;19.60;99.90
64501;DHT22;50874;24.150;-110.320;2022-12-20T01:06:56;19.50;99.90
64501;DHT22;50874;24.150;-110.320;2022-12-20T01:09:23;19.50;99.90
64501;DHT22;50874;24.150;-110.320;2022-12-20T01:11:49;19.60;99.90
64501;DHT22;50874;24.150;-110.320;2022-12-20T01:14:16;19.50;99.90
64501;DHT22;50874;24.150;-110.320;2022-12-20T01:16:45;19.50;99.90
64501;DHT22;50874;24.150;-110.320;2022-12-20T01:19:14;19.40;99.90
64501;DHT22;50874;24.150;-110.320;2022-12-20T01:21:41;19.40;99.90
64501;DHT22;50874;24.150;-110.320;2022-12-20T01:24:12;19.30;99.90
64501;DHT22;50874;24.150;-110.320;2022-12-20T01:26:39;19.30;99.90
64501;DHT22;50874;24.150;-110.320;2022-12-20T01:29:06;19.20;99.90
64501;DHT22;50874;24.150;-110.320;2022-12-20T01:31:33;19.20;99.90
64501;DHT22;50874;24.150;-110.320;2022-12-20T01:33:59;19.10;99.90
64501;DHT22;50874;24.150;-110.320;2022-12-20T01:36:29;19.00;99.90
64501;DHT22;50874;24.150;-110.320;2022-12-20T01:39:01;19.00;99.90
64501;DHT22;50874;24.150;-110.320;2022-12-20T01:41:29;19.00;99.90
64501;DHT22;50874;24.150;-110.320;2022-12-20T01:43:59;19.00;99.90
64501;DHT22;50874;24.150;-110.320;2022-12-20T01:46:29;19.00;99.90
64501;DHT22;50874;24.150;-110.320;2022-12-20T01:48:59;18.90;99.90
64501;DHT22;50874;24.150;-110.320;2022-12-20T01:51:29;19.00;99.90
64501;DHT22;50874;24.150;-110.320;2022-12-20T01:54:05;18.90;99.90
64501;DHT22;50874;24.150;-110.320;2022-12-20T01:56:33;18.90;99.90
64501;DHT22;50874;24.150;-110.320;2022-12-20T01:59:01;18.90;99.90
64501;DHT22;50874;24.150;-110.320;2022-12-20T02:01:27;18.90;99.90
64501;DHT22;50874;24.150;-110.320;2022-12-20T02:03:54;18.90;99.90
64501;DHT22;50874;24.150;-110.320;2022-12-20T02:06:24;18.90;99.90
64501;DHT22;50874;24.150;-110.320;2022-12-20T02:08:53;18.90;99.90
64501;DHT22;50874;24.150;-110.320;2022-12-20T02:14:10;18.80;99.90
64501;DHT22;50874;24.150;-110.320;2022-12-20T02:16:53;18.80;99.90
64501;DHT22;50874;24.150;-110.320;2022-12-20T02:25:07;18.80;99.90
64501;DHT22;50874;24.150;-110.320;2022-12-20T02:30:14;18.80;99.90
64501;DHT22;50874;24.150;-110.320;2022-12-20T02:32:51;18.70;99.90
64501;DHT22;50874;24.150;-110.320;2022-12-20T02:35:29;18.70;99.90
64501;DHT22;50874;24.150;-110.320;2022-12-20T02:37:59;18.70;99.90
64501;DHT22;50874;24.150;-110.320;2022-12-20T02:40:35;18.60;99.90
64501;DHT22;50874;24.150;-110.320;2022-12-20T02:43:07;18.60;99.90
64501;DHT22;50874;24.150;-110.320;2022-12-20T02:45:55;18.60;99.90
64501;DHT22;50874;24.150;-110.320;2022-12-20T02:48:24;18.60;99.90
64501;DHT22;50874;24.150;-110.320;2022-12-20T02:50:53;18.50;99.90
64501;DHT22;50874;24.150;-110.320;2022-12-20T02:53:21;18.50;99.90
64501;DHT22;50874;24.150;-110.320;2022-12-20T02:58:49;18.50;99.90
64501;DHT22;50874;24.150;-110.320;2022-12-20T03:01:32;18.50;99.90
64501;DHT22;50874;24.150;-110.320;2022-12-20T03:04:02;18.60;99.90
64501;DHT22;50874;24.150;-110.320;2022-12-20T03:06:29;18.50;99.90
64501;DHT22;50874;24.150;-110.320;2022-12-20T03:08:58;18.50;99.90
64501;DHT22;50874;24.150;-110.320;2022-12-20T03:11:25;18.50;99.90
64501;DHT22;50874;24.150;-110.320;2022-12-20T03:13:51;18.50;99.90
64501;DHT22;50874;24.150;-110.320;2022-12-20T03:16:17;18.50;99.90
64501;DHT22;50874;24.150;-110.320;2022-12-20T03:18:44;18.40;99.90
64501;DHT22;50874;24.150;-110.320;2022-12-20T03:21:11;18.40;99.90
64501;DHT22;50874;24.150;-110.320;2022-12-20T03:23:37;18.40;99.90
64501;DHT22;50874;24.150;-110.320;2022-12-20T03:26:04;18.40;99.90
64501;DHT22;50874;24.150;-110.320;2022-12-20T03:28:30;18.40;99.90
64501;DHT22;50874;24.150;-110.320;2022-12-20T03:30:57;18.40;99.90
64501;DHT22;50874;24.150;-110.320;2022-12-20T03:33:23;18.40;99.90
64501;DHT22;50874;24.150;-110.320;2022-12-20T03:35:50;18.30;99.90
64501;DHT22;50874;24.150;-110.320;2022-12-20T03:38:16;18.30;99.90
64501;DHT22;50874;24.150;-110.320;2022-12-20T03:40:42;18.30;99.90
64501;DHT22;50874;24.150;-110.320;2022-12-20T03:43:09;18.40;99.90
64501;DHT22;50874;24.150;-110.320;2022-12-20T03:45:35;18.30;99.90
64501;DHT22;50874;24.150;-110.320;2022-12-20T03:48:02;18.30;99.90
64501;DHT22;50874;24.150;-110.320;2022-12-20T03:50:28;18.30;99.90
64501;DHT22;50874;24.150;-110.320;2022-12-20T03:52:56;18.40;99.90
64501;DHT22;50874;24.150;-110.320;2022-12-20T03:55:22;18.30;99.90
64501;DHT22;50874;24.150;-110.320;2022-12-20T03:57:49;18.30;99.90
64501;DHT22;50874;24.150;-110.320;2022-12-20T04:00:15;18.30;99.90
64501;DHT22;50874;24.150;-110.320;2022-12-20T04:02:42;18.30;99.90
64501;DHT22;50874;24.150;-110.320;2022-12-20T04:05:08;18.20;99.90
64501;DHT22;50874;24.150;-110.320;2022-12-20T04:07:36;18.20;99.90
64501;DHT22;50874;24.150;-110.320;2022-12-20T04:10:03;18.20;99.90
64501;DHT22;50874;24.150;-110.320;2022-12-20T04:12:29;18.10;99.90
64501;DHT22;50874;24.150;-110.320;2022-12-20T04:14:56;18.20;99.90
64501;DHT22;50874;24.150;-110.320;2022-12-20T04:17:22;18.10;99.90
64501;DHT22;50874;24.150;-110.320;2022-12-20T04:19:48;18.20;99.90
64501;DHT22;50874;24.150;-110.320;2022-12-20T04:22:15;18.10;99.90
64501;DHT22;50874;24.150;-110.320;2022-12-20T04:24:41;18.20;99.90
64501;DHT22;50874;24.150;-110.320;2022-12-20T04:27:08;18.10;99.90
64501;DHT22;50874;24.150;-110.320;2022-12-20T04:29:34;18.10;99.90
64501;DHT22;50874;24.150;-110.320;2022-12-20T04:32:01;18.20;99.90
64501;DHT22;50874;24.150;-110.320;2022-12-20T04:34:27;18.10;99.90
64501;DHT22;50874;24.150;-110.320;2022-12-20T04:36:54;18.10;99.90
64501;DHT22;50874;24.150;-110.320;2022-12-20T04:39:20;18.10;99.90
64501;DHT22;50874;24.150;-110.320;2022-12-20T04:41:46;18.10;99.90
64501;DHT22;50874;24.150;-110.320;2022-12-20T04:44:13;18.10;99.90
64501;DHT22;50874;24.150;-110.320;2022-12-20T04:46:39;18.10;99.90
64501;DHT22;50874;24.150;-110.320;2022-12-20T04:49:06;18.10;99.90
64501;DHT22;50874;24.150;-110.320;2022-12-20T04:51:32;18.10;99.90
64501;DHT22;50874;24.150;-110.320;2022-12-20T04:53:59;18.10;99.90
64501;DHT22;50874;24.150;-110.320;2022-12-20T04:56:27;18.10;99.90
64501;DHT22;50874;24.150;-110.320;2022-12-20T04:58:55;18.10;99.90
64501;DHT22;50874;24.150;-110.320;2022-12-20T05:01:22;18.10;99.90
64501;DHT22;50874;24.150;-110.320;2022-12-20T05:03:49;18.10;99.90
64501;DHT22;50874;24.150;-110.320;2022-12-20T05:06:16;18.10;99.90
64501;DHT22;50874;24.150;-110.320;2022-12-20T05:08:43;18.10;99.90
64501;DHT22;50874;24.150;-110.320;2022-12-20T05:11:10;18.00;99.90
64501;DHT22;50874;24.150;-110.320;2022-12-20T05:13:37;18.10;99.90
64501;DHT22;50874;24.150;-110.320;2022-12-20T05:16:04;18.10;99.90
64501;DHT22;50874;24.150;-110.320;2022-12-20T05:18:30;18.10;99.90
64501;DHT22;50874;24.150;-110.320;2022-12-20T05:20:58;18.10;99.90
64501;DHT22;50874;24.150;-110.320;2022-12-20T05:23:43;18.10;99.90
64501;DHT22;50874;24.150;-110.320;2022-12-20T05:26:33;18.10;99.90
64501;DHT22;50874;24.150;-110.320;2022-12-20T05:29:01;18.10;99.90
64501;DHT22;50874;24.150;-110.320;2022-12-20T05:31:27;18.00;99.90
64501;DHT22;50874;24.150;-110.320;2022-12-20T05:33:54;18.00;99.90
64501;DHT22;50874;24.150;-110.320;2022-12-20T05:36:21;18.00;99.90
64501;DHT22;50874;24.150;-110.320;2022-12-20T05:38:47;18.00;99.90
64501;DHT22;50874;24.150;-110.320;2022-12-20T05:41:14;18.00;99.90
64501;DHT22;50874;24.150;-110.320;2022-12-20T05:43:44;18.00;99.90
64501;DHT22;50874;24.150;-110.320;2022-12-20T05:46:11;18.00;99.90
64501;DHT22;50874;24.150;-110.320;2022-12-20T05:48:37;18.00;99.90
64501;DHT22;50874;24.150;-110.320;2022-12-20T05:51:04;17.90;99.90
64501;DHT22;50874;24.150;-110.320;2022-12-20T05:53:30;17.90;99.90
64501;DHT22;50874;24.150;-110.320;2022-12-20T05:55:58;18.00;99.90
64501;DHT22;50874;24.150;-110.320;2022-12-20T05:58:24;18.00;99.90
64501;DHT22;50874;24.150;-110.320;2022-12-20T06:00:51;18.00;99.90
64501;DHT22;50874;24.150;-110.320;2022-12-20T06:03:17;18.00;99.90
64501;DHT22;50874;24.150;-110.320;2022-12-20T06:05:44;18.00;99.90
64501;DHT22;50874;24.150;-110.320;2022-12-20T06:08:12;18.00;99.90
64501;DHT22;50874;24.150;-110.320;2022-12-20T06:10:40;18.00;99.90
64501;DHT22;50874;24.150;-110.320;2022-12-20T06:13:07;18.00;99.90
64501;DHT22;50874;24.150;-110.320;2022-12-20T06:15:34;18.00;99.90
64501;DHT22;50874;24.150;-110.320;2022-12-20T06:18:00;18.10;99.90
64501;DHT22;50874;24.150;-110.320;2022-12-20T06:20:27;18.10;99.90
64501;DHT22;50874;24.150;-110.320;2022-12-20T06:22:53;18.20;99.90
64501;DHT22;50874;24.150;-110.320;2022-12-20T06:25:20;18.10;99.90
64501;DHT22;50874;24.150;-110.320;2022-12-20T06:27:46;18.10;99.90
64501;DHT22;50874;24.150;-110.320;2022-12-20T06:30:13;18.00;99.90
64501;DHT22;50874;24.150;-110.320;2022-12-20T06:32:40;18.00;99.90
64501;DHT22;50874;24.150;-110.320;2022-12-20T06:35:07;18.10;99.90
64501;DHT22;50874;24.150;-110.320;2022-12-20T06:37:33;18.10;99.90
64501;DHT22;50874;24.150;-110.320;2022-12-20T06:40:01;18.00;99.90
64501;DHT22;50874;24.150;-110.320;2022-12-20T06:42:28;18.00;99.90
64501;DHT22;50874;24.150;-110.320;2022-12-20T06:44:54;18.10;99.90
64501;DHT22;50874;24.150;-110.320;2022-12-20T06:47:21;18.10;99.90
64501;DHT22;50874;24.150;-110.320;2022-12-20T06:49:47;18.10;99.90
64501;DHT22;50874;24.150;-110.320;2022-12-20T06:52:14;18.10;99.90
64501;DHT22;50874;24.150;-110.320;2022-12-20T06:54:40;18.10;99.90
64501;DHT22;50874;24.150;-110.320;2022-12-20T06:57:07;18.00;99.90
64501;DHT22;50874;24.150;-110.320;2022-12-20T06:59:33;18.00;99.90
64501;DHT22;50874;24.150;-110.320;2022-12-20T07:02:00;18.00;99.90
64501;DHT22;50874;24.150;-110.320;2022-12-20T07:04:26;18.00;99.90
64501;DHT22;50874;24.150;-110.320;2022-12-20T07:06:53;18.00;99.90
64501;DHT22;50874;24.150;-110.320;2022-12-20T07:09:19;18.00;99.90
64501;DHT22;50874;24.150;-110.320;2022-12-20T07:11:46;18.10;99.90
64501;DHT22;50874;24.150;-110.320;2022-12-20T07:14:12;18.10;99.90
64501;DHT22;50874;24.150;-110.320;2022-12-20T07:16:38;18.00;99.90
64501;DHT22;50874;24.150;-110.320;2022-12-20T07:19:12;18.00;99.90
64501;DHT22;50874;24.150;-110.320;2022-12-20T07:21:39;18.00;99.90
64501;DHT22;50874;24.150;-110.320;2022-12-20T07:24:05;17.90;99.90
64501;DHT22;50874;24.150;-110.320;2022-12-20T07:26:32;18.00;99.90
64501;DHT22;50874;24.150;-110.320;2022-12-20T07:28:59;18.00;99.90
64501;DHT22;50874;24.150;-110.320;2022-12-20T07:31:25;17.90;99.90
64501;DHT22;50874;24.150;-110.320;2022-12-20T07:33:51;18.00;99.90
64501;DHT22;50874;24.150;-110.320;2022-12-20T07:36:18;17.90;99.90
64501;DHT22;50874;24.150;-110.320;2022-12-20T07:38:45;17.90;99.90
64501;DHT22;50874;24.150;-110.320;2022-12-20T07:41:14;17.90;99.90
64501;DHT22;50874;24.150;-110.320;2022-12-20T07:43:41;17.90;99.90
64501;DHT22;50874;24.150;-110.320;2022-12-20T07:46:08;17.90;99.90
64501;DHT22;50874;24.150;-110.320;2022-12-20T07:48:36;17.90;99.90
64501;DHT22;50874;24.150;-110.320;2022-12-20T07:51:22;17.90;99.90
64501;DHT22;50874;24.150;-110.320;2022-12-20T07:53:53;17.80;99.90
64501;DHT22;50874;24.150;-110.320;2022-12-20T07:56:23;17.80;99.90
64501;DHT22;50874;24.150;-110.320;2022-12-20T07:58:51;17.80;99.90
64501;DHT22;50874;24.150;-110.320;2022-12-20T08:01:21;17.90;99.90
64501;DHT22;50874;24.150;-110.320;2022-12-20T08:03:51;17.80;99.90
64501;DHT22;50874;24.150;-110.320;2022-12-20T08:06:18;17.80;99.90
64501;DHT22;50874;24.150;-110.320;2022-12-20T08:08:50;17.70;99.90
64501;DHT22;50874;24.150;-110.320;2022-12-20T08:11:20;17.70;99.90
64501;DHT22;50874;24.150;-110.320;2022-12-20T08:13:49;17.60;99.90
64501;DHT22;50874;24.150;-110.320;2022-12-20T08:16:16;17.70;99.90
64501;DHT22;50874;24.150;-110.320;2022-12-20T08:18:43;17.60;99.90
64501;DHT22;50874;24.150;-110.320;2022-12-20T08:21:09;17.60;99.90
64501;DHT22;50874;24.150;-110.320;2022-12-20T08:23:38;17.70;99.90
64501;DHT22;50874;24.150;-110.320;2022-12-20T08:26:04;17.70;99.90
64501;DHT22;50874;24.150;-110.320;2022-12-20T08:28:31;17.60;99.90
64501;DHT22;50874;24.150;-110.320;2022-12-20T08:31:05;17.60;99.90
64501;DHT22;50874;24.150;-110.320;2022-12-20T08:33:33;17.60;99.90
64501;DHT22;50874;24.150;-110.320;2022-12-20T08:36:01;17.60;99.90
64501;DHT22;50874;24.150;-110.320;2022-12-20T08:38:29;17.60;99.90
64501;DHT22;50874;24.150;-110.320;2022-12-20T08:41:09;17.50;99.90
64501;DHT22;50874;24.150;-110.320;2022-12-20T08:43:37;17.50;99.90
64501;DHT22;50874;24.150;-110.320;2022-12-20T08:46:05;17.50;99.90
64501;DHT22;50874;24.150;-110.320;2022-12-20T08:48:32;17.60;99.90
64501;DHT22;50874;24.150;-110.320;2022-12-20T08:51:05;17.60;99.90
64501;DHT22;50874;24.150;-110.320;2022-12-20T08:53:33;17.60;99.90
64501;DHT22;50874;24.150;-110.320;2022-12-20T08:56:09;17.50;99.90
64501;DHT22;50874;24.150;-110.320;2022-12-20T08:58:36;17.50;99.90
64501;DHT22;50874;24.150;-110.320;2022-12-20T09:01:05;17.50;99.90
64501;DHT22;50874;24.150;-110.320;2022-12-20T09:03:32;17.60;99.90
64501;DHT22;50874;24.150;-110.320;2022-12-20T09:05:59;17.60;99.90
64501;DHT22;50874;24.150;-110.320;2022-12-20T09:08:26;17.60;99.90
64501;DHT22;50874;24.150;-110.320;2022-12-20T09:10:52;17.70;99.90
64501;DHT22;50874;24.150;-110.320;2022-12-20T09:13:19;17.70;99.90
64501;DHT22;50874;24.150;-110.320;2022-12-20T09:15:46;17.70;99.90
64501;DHT22;50874;24.150;-110.320;2022-12-20T09:18:12;17.60;99.90
64501;DHT22;50874;24.150;-110.320;2022-12-20T09:20:43;17.60;99.90
64501;DHT22;50874;24.150;-110.320;2022-12-20T09:23:10;17.60;99.90
64501;DHT22;50874;24.150;-110.320;2022-12-20T09:25:37;17.50;99.90
64501;DHT22;50874;24.150;-110.320;2022-12-20T09:28:04;17.60;99.90
64501;DHT22;50874;24.150;-110.320;2022-12-20T09:30:30;17.60;99.90
64501;DHT22;50874;24.150;-110.320;2022-12-20T09:32:57;17.60;99.90
64501;DHT22;50874;24.150;-110.320;2022-12-20T09:35:23;17.60;99.90
64501;DHT22;50874;24.150;-110.320;2022-12-20T09:37:50;17.50;99.90
64501;DHT22;50874;24.150;-110.320;2022-12-20T09:40:29;17.40;99.90
64501;DHT22;50874;24.150;-110.320;2022-12-20T09:42:57;17.50;99.90
64501;DHT22;50874;24.150;-110.320;2022-12-20T09:45:27;17.50;99.90
64501;DHT22;50874;24.150;-110.320;2022-12-20T09:47:54;17.40;99.90
64501;DHT22;50874;24.150;-110.320;2022-12-20T09:50:32;17.50;99.90
64501;DHT22;50874;24.150;-110.320;2022-12-20T09:56:35;17.60;99.90
64501;DHT22;50874;24.150;-110.320;2022-12-20T09:59:13;17.60;99.90
64501;DHT22;50874;24.150;-110.320;2022-12-20T10:01:44;17.50;99.90
64501;DHT22;50874;24.150;-110.320;2022-12-20T10:04:22;17.50;99.90
64501;DHT22;50874;24.150;-110.320;2022-12-20T10:10:09;17.60;99.90
64501;DHT22;50874;24.150;-110.320;2022-12-20T10:15:25;17.60;99.90
64501;DHT22;50874;24.150;-110.320;2022-12-20T10:18:09;17.50;99.90
64501;DHT22;50874;24.150;-110.320;2022-12-20T10:20:45;17.40;99.90
64501;DHT22;50874;24.150;-110.320;2022-12-20T10:23:29;17.60;99.90
64501;DHT22;50874;24.150;-110.320;2022-12-20T10:25:58;17.50;99.90
64501;DHT22;50874;24.150;-110.320;2022-12-20T10:28:34;17.50;99.90
64501;DHT22;50874;24.150;-110.320;2022-12-20T10:31:12;17.40;99.90
64501;DHT22;50874;24.150;-110.320;2022-12-20T10:33:39;17.40;99.90
64501;DHT22;50874;24.150;-110.320;2022-12-20T10:36:25;17.40;99.90
64501;DHT22;50874;24.150;-110.320;2022-12-20T10:38:54;17.30;99.90
64501;DHT22;50874;24.150;-110.320;2022-12-20T10:41:26;17.30;99.90
64501;DHT22;50874;24.150;-110.320;2022-12-20T10:44:00;17.20;99.90
64501;DHT22;50874;24.150;-110.320;2022-12-20T10:46:40;17.30;99.90
64501;DHT22;50874;24.150;-110.320;2022-12-20T10:52:15;17.20;99.90
64501;DHT22;50874;24.150;-110.320;2022-12-20T10:54:44;17.20;99.90
64501;DHT22;50874;24.150;-110.320;2022-12-20T10:57:22;17.10;99.90
64501;DHT22;50874;24.150;-110.320;2022-12-20T11:02:28;17.00;99.90
64501;DHT22;50874;24.150;-110.320;2022-12-20T11:05:23;16.90;99.90
64501;DHT22;50874;24.150;-110.320;2022-12-20T11:08:11;16.80;99.90
64501;DHT22;50874;24.150;-110.320;2022-12-20T11:10:39;16.80;99.90
64501;DHT22;50874;24.150;-110.320;2022-12-20T11:13:05;16.90;99.90
64501;DHT22;50874;24.150;-110.320;2022-12-20T11:15:34;16.90;99.90
64501;DHT22;50874;24.150;-110.320;2022-12-20T11:25:38;17.00;99.90
64501;DHT22;50874;24.150;-110.320;2022-12-20T11:31:03;17.20;99.90
64501;DHT22;50874;24.150;-110.320;2022-12-20T11:38:58;17.00;99.90
64501;DHT22;50874;24.150;-110.320;2022-12-20T11:41:36;17.00;99.90
64501;DHT22;50874;24.150;-110.320;2022-12-20T11:44:21;17.10;99.90
64501;DHT22;50874;24.150;-110.320;2022-12-20T11:46:57;17.00;99.90
64501;DHT22;50874;24.150;-110.320;2022-12-20T11:49:52;17.00;99.90
64501;DHT22;50874;24.150;-110.320;2022-12-20T11:52:36;17.00;99.90
64501;DHT22;50874;24.150;-110.320;2022-12-20T11:55:18;17.10;99.90
64501;DHT22;50874;24.150;-110.320;2022-12-20T12:00:33;17.10;99.90
64501;DHT22;50874;24.150;-110.320;2022-12-20T12:05:43;17.20;99.90
64501;DHT22;50874;24.150;-110.320;2022-12-20T12:08:16;17.30;99.90
64501;DHT22;50874;24.150;-110.320;2022-12-20T12:11:01;17.20;99.90
64501;DHT22;50874;24.150;-110.320;2022-12-20T12:13:35;17.30;99.90
64501;DHT22;50874;24.150;-110.320;2022-12-20T12:18:41;17.30;99.90
64501;DHT22;50874;24.150;-110.320;2022-12-20T12:31:40;17.10;99.90
64501;DHT22;50874;24.150;-110.320;2022-12-20T12:45:20;17.10;99.90
64501;DHT22;50874;24.150;-110.320;2022-12-20T12:50:36;17.00;99.90
64501;DHT22;50874;24.150;-110.320;2022-12-20T12:53:18;17.10;99.90
64501;DHT22;50874;24.150;-110.320;2022-12-20T12:55:51;17.00;99.90
64501;DHT22;50874;24.150;-110.320;2022-12-20T13:00:59;17.00;99.90
64501;DHT22;50874;24.150;-110.320;2022-12-20T13:11:43;17.10;99.90
64501;DHT22;50874;24.150;-110.320;2022-12-20T13:19:52;17.10;99.90
64501;DHT22;50874;24.150;-110.320;2022-12-20T13:22:22;17.00;99.90
64501;DHT22;50874;24.150;-110.320;2022-12-20T13:40:43;17.00;99.90
64501;DHT22;50874;24.150;-110.320;2022-12-20T13:51:18;17.10;99.90
64501;DHT22;50874;24.150;-110.320;2022-12-20T13:54:02;17.20;99.90
64501;DHT22;50874;24.150;-110.320;2022-12-20T13:56:46;17.10;99.90
64501;DHT22;50874;24.150;-110.320;2022-12-20T13:59:21;17.00;99.90
64501;DHT22;50874;24.150;-110.320;2022-12-20T14:01:55;17.10;99.90
64501;DHT22;50874;24.150;-110.320;2022-12-20T14:04:24;17.10;99.90
64501;DHT22;50874;24.150;-110.320;2022-12-20T14:07:00;17.10;99.90
64501;DHT22;50874;24.150;-110.320;2022-12-20T14:12:03;17.10;99.90
64501;DHT22;50874;24.150;-110.320;2022-12-20T14:14:35;17.20;99.90
64501;DHT22;50874;24.150;-110.320;2022-12-20T14:19:46;17.20;99.90
64501;DHT22;50874;24.150;-110.320;2022-12-20T14:22:13;17.20;99.90
64501;DHT22;50874;24.150;-110.320;2022-12-20T14:24:42;17.30;99.90
64501;DHT22;50874;24.150;-110.320;2022-12-20T14:27:13;17.30;99.90
64501;DHT22;50874;24.150;-110.320;2022-12-20T14:29:40;17.30;99.90
64501;DHT22;50874;24.150;-110.320;2022-12-20T14:32:17;17.40;99.90
64501;DHT22;50874;24.150;-110.320;2022-12-20T14:34:44;17.40;99.90
64501;DHT22;50874;24.150;-110.320;2022-12-20T14:37:34;17.50;99.90
64501;DHT22;50874;24.150;-110.320;2022-12-20T14:40:17;17.50;99.90
64501;DHT22;50874;24.150;-110.320;2022-12-20T14:42:44;17.50;99.90
64501;DHT22;50874;24.150;-110.320;2022-12-20T14:48:14;17.60;99.90
64501;DHT22;50874;24.150;-110.320;2022-12-20T14:50:51;17.70;99.90
64501;DHT22;50874;24.150;-110.320;2022-12-20T14:53:22;17.80;99.90
64501;DHT22;50874;24.150;-110.320;2022-12-20T14:55:50;17.90;99.90
64501;DHT22;50874;24.150;-110.320;2022-12-20T14:58:31;17.90;99.90
64501;DHT22;50874;24.150;-110.320;2022-12-20T15:01:16;17.90;99.90
64501;DHT22;50874;24.150;-110.320;2022-12-20T15:03:54;18.00;99.90
64501;DHT22;50874;24.150;-110.320;2022-12-20T15:06:42;18.10;99.90
64501;DHT22;50874;24.150;-110.320;2022-12-20T15:09:09;18.10;99.90
64501;DHT22;50874;24.150;-110.320;2022-12-20T15:11:36;18.20;99.90
64501;DHT22;50874;24.150;-110.320;2022-12-20T15:14:34;18.30;99.90
64501;DHT22;50874;24.150;-110.320;2022-12-20T15:17:10;18.30;99.90
64501;DHT22;50874;24.150;-110.320;2022-12-20T15:19:37;18.40;99.90
64501;DHT22;50874;24.150;-110.320;2022-12-20T15:22:04;18.50;99.90
64501;DHT22;50874;24.150;-110.320;2022-12-20T15:24:31;18.60;99.90
64501;DHT22;50874;24.150;-110.320;2022-12-20T15:26:57;18.70;99.90
64501;DHT22;50874;24.150;-110.320;2022-12-20T15:29:26;18.80;99.90
64501;DHT22;50874;24.150;-110.320;2022-12-20T15:32:15;19.10;99.90
64501;DHT22;50874;24.150;-110.320;2022-12-20T15:34:42;19.40;99.90
64501;DHT22;50874;24.150;-110.320;2022-12-20T15:37:14;19.60;99.90
64501;DHT22;50874;24.150;-110.320;2022-12-20T15:39:41;19.70;99.90
64501;DHT22;50874;24.150;-110.320;2022-12-20T15:42:15;20.00;99.90
64501;DHT22;50874;24.150;-110.320;2022-12-20T15:44:42;20.20;99.90
64501;DHT22;50874;24.150;-110.320;2022-12-20T15:47:13;20.50;99.90
64501;DHT22;50874;24.150;-110.320;2022-12-20T15:49:40;20.50;99.90
64501;DHT22;50874;24.150;-110.320;2022-12-20T15:52:08;20.60;99.90
64501;DHT22;50874;24.150;-110.320;2022-12-20T15:54:36;20.90;99.90
64501;DHT22;50874;24.150;-110.320;2022-12-20T15:57:05;20.90;99.90
64501;DHT22;50874;24.150;-110.320;2022-12-20T15:59:35;20.90;99.90
64501;DHT22;50874;24.150;-110.320;2022-12-20T16:02:01;21.30;99.90
64501;DHT22;50874;24.150;-110.320;2022-12-20T16:04:28;21.50;99.90
64501;DHT22;50874;24.150;-110.320;2022-12-20T16:06:54;21.70;99.90
64501;DHT22;50874;24.150;-110.320;2022-12-20T16:09:21;21.80;99.90
64501;DHT22;50874;24.150;-110.320;2022-12-20T16:11:51;21.70;99.90
64501;DHT22;50874;24.150;-110.320;2022-12-20T16:14:19;22.10;99.90
64501;DHT22;50874;24.150;-110.320;2022-12-20T16:16:46;22.10;99.90
64501;DHT22;50874;24.150;-110.320;2022-12-20T16:19:15;22.20;99.90
64501;DHT22;50874;24.150;-110.320;2022-12-20T16:21:51;22.60;99.90
64501;DHT22;50874;24.150;-110.320;2022-12-20T16:24:19;22.60;99.90
64501;DHT22;50874;24.150;-110.320;2022-12-20T16:26:47;22.90;99.90
64501;DHT22;50874;24.150;-110.320;2022-12-20T16:29:14;23.20;99.90
64501;DHT22;50874;24.150;-110.320;2022-12-20T16:31:41;23.20;99.90
64501;DHT22;50874;24.150;-110.320;2022-12-20T16:34:15;23.60;99.90
64501;DHT22;50874;24.150;-110.320;2022-12-20T16:36:43;24.00;99.90
64501;DHT22;50874;24.150;-110.320;2022-12-20T16:39:10;23.50;99.90
64501;DHT22;50874;24.150;-110.320;2022-12-20T16:41:38;22.90;99.90
64501;DHT22;50874;24.150;-110.320;2022-12-20T16:44:14;23.70;99.90
64501;DHT22;50874;24.150;-110.320;2022-12-20T16:46:41;23.60;99.90
64501;DHT22;50874;24.150;-110.320;2022-12-20T16:49:09;23.90;99.90
64501;DHT22;50874;24.150;-110.320;2022-12-20T16:51:42;23.70;99.90
64501;DHT22;50874;24.150;-110.320;2022-12-20T16:54:15;24.00;99.90
64501;DHT22;50874;24.150;-110.320;2022-12-20T16:56:42;24.60;99.90
64501;DHT22;50874;24.150;-110.320;2022-12-20T16:59:12;24.20;99.90
64501;DHT22;50874;24.150;-110.320;2022-12-20T17:01:40;24.40;99.90
64501;DHT22;50874;24.150;-110.320;2022-12-20T17:04:13;24.60;99.90
64501;DHT22;50874;24.150;-110.320;2022-12-20T17:06:41;24.90;99.90
64501;DHT22;50874;24.150;-110.320;2022-12-20T17:09:08;25.10;99.90